CST,Max TemperatureF,Mean TemperatureF,Min TemperatureF,Max Dew PointF,MeanDew PointF,Min DewpointF,Max Humidity, Mean Humidity, Min Humidity, Max Sea Level PressureIn, Mean Sea Level PressureIn, Min Sea Level PressureIn, Max VisibilityMiles, Mean VisibilityMiles, Min VisibilityMiles, Max Wind SpeedMPH, Mean Wind SpeedMPH, Max Gust SpeedMPH,PrecipitationIn, CloudCover, Events, WindDirDegrees
2010-12-1,63,48,33,16,13,10,41,27,13,30.31,30.19,30.10,10,10,10,22,11,26,0.00,0,,198
2010-12-2,70,55,40,25,21,14,49,33,17,30.17,30.11,30.06,10,10,10,17,8,23,0.00,0,,191
2010-12-3,79,58,37,32,27,23,54,35,15,30.12,30.02,29.92,10,10,10,22,11,29,0.00,0,,204
2010-12-4,61,49,37,36,30,24,64,47,30,30.38,30.15,29.88,10,10,9,28,14,33,0.00,0,,346
2010-12-5,48,39,30,27,22,17,78,55,31,30.53,30.45,30.37,10,10,8,15,7,20,0.00,0,,7
2010-12-6,50,36,22,20,16,13,74,49,23,30.56,30.44,30.25,10,10,10,8,3,9,0.00,0,,177
2010-12-7,64,48,31,29,22,13,52,40,27,30.26,30.11,29.95,10,10,10,24,14,31,0.00,0,,189
2010-12-8,58,43,27,31,28,24,92,64,36,30.40,30.30,30.19,10,10,7,14,6,18,0.00,0,,246
2010-12-9,72,56,39,28,26,25,64,41,17,30.16,30.01,29.88,10,10,10,31,15,38,0.00,0,,211
2010-12-10,69,51,33,31,28,23,69,46,22,30.01,29.90,29.75,10,10,10,15,5,17,0.00,0,,194
2010-12-11,60,49,38,34,21,13,65,43,20,30.30,30.01,29.71,10,10,8,29,14,36,0.00,0,,345
2010-12-12,48,38,28,15,11,8,53,36,19,30.48,30.38,30.31,10,10,10,18,10,25,0.00,0,,343
2010-12-13,64,47,29,17,13,9,43,29,15,30.31,30.14,30.01,10,10,10,21,11,26,0.00,0,,187
2010-12-14,75,61,46,27,21,15,31,23,14,29.99,29.85,29.70,10,10,10,30,14,39,0.00,0,,208
2010-12-15,83,67,50,34,26,19,50,30,10,29.70,29.58,29.47,10,10,10,23,13,30,0.00,0,,216
2010-12-16,61,47,32,30,26,23,70,48,25,30.07,29.95,29.67,10,10,6,21,11,32,0.00,0,,11
2010-12-17,49,41,32,25,22,17,59,44,29,30.23,30.14,30.05,10,10,10,16,7,20,0.00,2,,44
2010-12-18,53,38,22,31,21,18,92,59,26,30.21,30.08,29.93,10,10,10,18,7,22,0.00,0,,171
2010-12-19,72,57,42,36,31,21,49,38,27,29.92,29.84,29.77,10,10,10,24,13,32,0.00,0,,193
2010-12-20,84,67,50,38,34,28,61,38,15,29.82,29.76,29.70,10,10,10,26,14,33,0.00,0,,220
2010-12-21,85,66,47,36,31,28,56,35,14,30.09,29.92,29.81,10,10,8,23,8,29,0.00,0,,226
2010-12-22,55,48,40,37,32,21,86,63,40,30.32,30.26,30.11,10,9,6,17,9,20,0.00,5,,18
2010-12-23,53,46,38,45,30,20,77,60,43,30.30,30.18,30.05,10,9,7,14,6,17,T,8,,100
2010-12-24,52,43,33,47,41,33,100,89,77,30.32,30.15,30.01,9,4,2,23,10,28,1.15,7,Rain,347
2010-12-25,37,32,27,32,26,24,100,85,70,30.53,30.44,30.33,10,9,6,22,10,28,0.00,2,,346
2010-12-26,48,35,21,29,25,19,96,73,49,30.45,30.34,30.18,10,8,5,20,6,24,0.00,0,,146
2010-12-27,54,44,34,34,28,24,70,54,38,30.19,30.12,30.06,10,10,10,23,14,28,0.00,0,,172
2010-12-28,54,47,39,52,46,35,100,78,56,30.15,30.03,29.91,10,7,2,14,6,20,0.05,7,Rain,145
2010-12-29,69,60,51,52,44,33,100,64,27,29.90,29.68,29.50,10,9,6,25,14,32,0.00,3,,205
2010-12-30,71,62,52,50,40,29,77,49,20,29.58,29.48,29.41,10,10,10,21,11,25,0.00,0,,182
2010-12-31,60,49,37,48,19,1,67,41,15,29.99,29.81,29.51,10,10,9,23,10,33,0.00,3,,290